Главная страница
METAR-TAF:

METAR-TAF

Аэропорты :

Филадельфия, Пенсильвания, США

широта: 39-52-06N, долгота: 075-13-52W, высота над уровнем моря: 6 м

Текущие метеонаблюдения

Эта сводка был подготовлена 12 минут назад, в 20:54 UTC
Ветер 7 Узел от северный с порывами до 16 Узел
Температура 18°C
Влажность 28%
Давление 1026 hPa
Видимость: 16.1 км
небольшая облачность на высоте 25000 фута

METAR: KPHL 192054Z 01007G16KT 10SM FEW250 18/M01 A3031 RMK AO2 SLP263 T01831011 56008 $

Время: 17:06 (21:06 UTC)

Прогноз

Эта сводка был подготовлена 42 минут назад, в 20:24 UTC
Прогноз действительный с 19-го 20 UTC до 20-го 24 UTC
Ветер 8 Узел от северо-северо-восточный
Видимость: 10 км
ясное небо
С 20-го 0200 UTC
Ветер 4 Узел от северо-восточный
Видимость: 10 км
ясное небо
С 20-го 1500 UTC
Ветер 10 Узел от северо-восточный
Видимость: 10 км
ясное небо

TAF: KPHL 192024Z 1920/2024 02008KT P6SM SKC FM200200 04004KT P6SM SKC FM201500 05010KT P6SM SKC

Метеонаблюдения и прогнозы для более 4000 аэропортов (сводки METAR и TAF).

Имеющиеся станции представлены на карте желтыми и красными точками.

Чтобы увидеть название станции, наведите на нее мышь.

Затем щелкните, чтобы увидеть метеонаблюдения и метеопрогнозы.

Управление картой: чтобы увеличить масштаб, щелкните зеленые кнопки с черным крестиком; чтобы уменьшить масштаб, щелкните зеленую кнопку с тире; для просмотра соседних карт щелкайте зеленые стрелки.


METAR-TAF: